Main page
METAR-TAF:

METAR-TAF

Airports :

Hawarden, Wales

Hawarden Airport

latitude: 53-10N, longitude: 002-59W, elevation: 10 m

Current weather observation

The report was made 21 minutes ago, at 08:50 UTC
Wind 10 kt from the South
Temperature 12°C
Humidity 88%
Pressure 1017 hPa
Visibility 10 km or more
Few clouds at a height of 1500 ft
Scattered clouds at a height of 2400 ft

METAR: EGNR 290850Z 17010KT 9999 FEW015 SCT024 12/10 Q1017

Time: 10:11 (09:11 UTC)

Forecast

The report was made 1 hour and 8 minutes ago, at 08:03 UTC
Forecast valid from 29 at 09 UTC to 29 at 18 UTC
Wind 9 kt from the South/Southeast
Visibility 10 km or more
Scattered clouds at a height of 2000 ft
Probability 30% :
Temporary
from 29 at 09 UTC to 29 at 18 UTC
Visibility: 9000 m
Broken clouds at a height of 1400 ft
light rain

TAF: EGNR 290803Z 2909/2918 16009KT 9999 SCT020 PROB30 TEMPO 2909/2918 9000 -RA BKN014

Weather observations and forecasts of more than 4000 airports (METAR and TAF reports).

The available stations are represented by yellow and red dots on the map.

Hover mouse over dot to see the name of the station.

Then click to see weather observations and forecasts.

To change the map : click on the green buttons with a black cross to zoom in, on the green button with a dash to zoom out, or on the green arrows for adjacent maps.


METAR-TAF: